createdAt,value
2019-04-27T00:01:35.008Z,3.73
2019-04-27T00:04:27.001Z,3.07
2019-04-27T00:07:00.946Z,2.73
2019-04-27T00:09:50.080Z,2.87
2019-04-27T00:12:16.431Z,2.70
2019-04-27T00:14:48.427Z,2.53
2019-04-27T00:17:44.947Z,3.00
2019-04-27T00:20:21.418Z,2.90
2019-04-27T00:22:54.524Z,2.47
2019-04-27T00:25:26.917Z,2.93
2019-04-27T00:27:56.031Z,2.80
2019-04-27T00:30:25.959Z,2.70
2019-04-27T00:32:55.842Z,2.40
2019-04-27T00:35:35.167Z,2.60
2019-04-27T00:38:18.593Z,3.00
2019-04-27T00:40:53.757Z,2.73
2019-04-27T00:43:25.227Z,3.20
2019-04-27T00:45:55.366Z,2.67
2019-04-27T00:48:25.216Z,3.37
2019-04-27T00:50:55.095Z,4.10
2019-04-27T00:53:25.417Z,4.20
2019-04-27T00:56:20.571Z,4.37
2019-04-27T00:59:21.603Z,4.67
2019-04-27T01:02:04.138Z,4.07
2019-04-27T01:04:34.180Z,3.90
2019-04-27T01:07:04.310Z,3.53
2019-04-27T01:09:34.417Z,4.00
2019-04-27T01:12:04.930Z,4.10
2019-04-27T01:14:34.773Z,4.17
2019-04-27T01:17:04.860Z,3.53
2019-04-27T01:19:34.806Z,3.90
2019-04-27T01:22:05.013Z,3.83
2019-04-27T01:24:34.941Z,4.00
2019-04-27T01:27:15.283Z,3.43
2019-04-27T01:29:45.404Z,3.07
2019-04-27T01:32:16.447Z,3.83
2019-04-27T01:34:46.413Z,4.10
2019-04-27T01:37:16.669Z,3.77
2019-04-27T01:39:46.463Z,3.83
2019-04-27T01:42:19.367Z,3.50
2019-04-27T01:44:51.074Z,3.90
2019-04-27T01:47:22.302Z,3.67
2019-04-27T01:49:52.245Z,3.90
2019-04-27T01:52:22.230Z,3.53
2019-04-27T01:54:52.128Z,3.70
2019-04-27T01:57:21.997Z,3.43
2019-04-27T01:59:51.876Z,3.60
2019-04-27T02:02:46.439Z,3.10
2019-04-27T02:05:35.730Z,3.37
2019-04-27T02:08:06.160Z,3.40
2019-04-27T02:10:37.048Z,3.37
2019-04-27T02:13:08.798Z,3.50
2019-04-27T02:15:39.555Z,3.60
2019-04-27T02:18:09.635Z,3.27
2019-04-27T02:20:39.584Z,3.37
2019-04-27T02:23:09.527Z,3.90
2019-04-27T02:25:41.524Z,3.83
2019-04-27T02:28:39.781Z,3.60
2019-04-27T02:31:46.853Z,3.57
2019-04-27T02:34:20.134Z,3.97
2019-04-27T02:36:50.517Z,3.53
2019-04-27T02:39:21.685Z,2.70
2019-04-27T02:41:52.175Z,2.70
2019-04-27T02:44:37.015Z,2.67
2019-04-27T02:47:07.253Z,2.73
2019-04-27T02:49:37.461Z,2.20
2019-04-27T02:52:26.756Z,2.93
2019-04-27T02:54:59.118Z,2.33
2019-04-27T02:57:30.215Z,2.07
2019-04-27T03:00:00.423Z,2.20
2019-04-27T03:02:40.209Z,2.10
2019-04-27T03:05:13.039Z,2.50
2019-04-27T03:07:42.846Z,2.00
2019-04-27T03:10:12.934Z,2.50
2019-04-27T03:12:47.208Z,2.50
2019-04-27T03:15:25.402Z,2.00
2019-04-27T03:18:09.891Z,2.27
2019-04-27T03:20:53.493Z,2.17
2019-04-27T03:23:23.433Z,2.40
2019-04-27T03:26:04.375Z,3.00
2019-04-27T03:28:34.430Z,3.17
2019-04-27T03:31:04.401Z,3.17
2019-04-27T03:33:35.144Z,2.80
2019-04-27T03:36:05.438Z,2.80
2019-04-27T03:38:35.619Z,3.33
2019-04-27T03:41:05.564Z,3.40
2019-04-27T03:43:35.610Z,3.67
2019-04-27T03:46:05.555Z,3.17
2019-04-27T03:48:35.797Z,3.20
2019-04-27T03:51:21.130Z,3.70
2019-04-27T03:54:10.743Z,3.23
2019-04-27T03:56:44.338Z,3.23
2019-04-27T03:59:52.100Z,3.40
2019-04-27T04:02:22.386Z,3.10
2019-04-27T04:04:52.325Z,3.00
2019-04-27T04:07:22.260Z,3.00
2019-04-27T04:09:52.219Z,2.97
2019-04-27T04:12:31.206Z,3.17
2019-04-27T04:15:01.480Z,3.20
2019-04-27T04:17:31.482Z,3.10
2019-04-27T04:20:02.534Z,3.00
2019-04-27T04:22:32.752Z,2.93
2019-04-27T04:25:02.676Z,2.53
2019-04-27T04:27:32.627Z,2.70
2019-04-27T04:30:02.792Z,2.70
2019-04-27T04:32:33.738Z,2.80
2019-04-27T04:35:21.663Z,2.90
2019-04-27T04:37:53.254Z,3.37
2019-04-27T04:40:30.911Z,3.07
2019-04-27T04:43:06.888Z,3.30
2019-04-27T04:45:59.479Z,3.90
2019-04-27T04:48:30.187Z,3.90
2019-04-27T04:51:00.301Z,3.20
2019-04-27T04:53:31.206Z,3.43
2019-04-27T04:56:01.148Z,2.63
2019-04-27T04:58:31.485Z,3.17
2019-04-27T05:01:01.999Z,2.80
2019-04-27T05:03:32.034Z,3.00
2019-04-27T05:06:02.013Z,3.40
2019-04-27T05:08:31.948Z,2.60
2019-04-27T05:11:01.822Z,3.20
2019-04-27T05:13:31.730Z,2.80
2019-04-27T05:16:01.597Z,3.13
2019-04-27T05:18:31.522Z,3.23
2019-04-27T05:21:08.681Z,3.23
2019-04-27T05:23:38.990Z,3.07
2019-04-27T05:26:09.250Z,3.00
2019-04-27T05:28:40.851Z,2.37
2019-04-27T05:31:10.920Z,3.17
2019-04-27T05:33:40.899Z,2.97
2019-04-27T05:36:11.027Z,2.83
2019-04-27T05:38:45.869Z,3.23
2019-04-27T05:41:14.475Z,3.40
2019-04-27T05:44:07.559Z,3.40
2019-04-27T05:46:52.787Z,2.87
2019-04-27T05:49:31.381Z,2.70
2019-04-27T05:52:01.345Z,2.97
2019-04-27T05:54:31.229Z,2.80
2019-04-27T05:57:01.199Z,3.07
2019-04-27T05:59:31.461Z,3.50
2019-04-27T06:02:01.882Z,3.30
2019-04-27T06:04:32.353Z,3.00
2019-04-27T06:07:02.464Z,2.93
2019-04-27T06:09:32.302Z,3.43
2019-04-27T06:12:02.401Z,3.23
2019-04-27T06:14:33.189Z,3.07
2019-04-27T06:17:03.390Z,3.20
2019-04-27T06:19:33.637Z,3.47
2019-04-27T06:22:03.578Z,3.00
2019-04-27T06:24:33.856Z,3.33
2019-04-27T06:27:04.100Z,3.80
2019-04-27T06:29:34.027Z,3.63
2019-04-27T06:32:04.292Z,3.30
2019-04-27T06:34:34.232Z,3.93
2019-04-27T06:37:04.374Z,3.27
2019-04-27T06:39:34.241Z,3.53
2019-04-27T06:42:16.070Z,3.73
2019-04-27T06:44:35.927Z,3.20
2019-04-27T06:47:05.930Z,3.97
2019-04-27T06:49:35.808Z,3.60
2019-04-27T06:52:08.574Z,4.47
2019-04-27T06:54:38.973Z,3.63
2019-04-27T06:57:09.259Z,3.90
2019-04-27T06:59:40.133Z,3.40
2019-04-27T07:02:10.081Z,3.57
2019-04-27T07:04:39.998Z,3.67
2019-04-27T07:07:10.836Z,4.17
2019-04-27T07:09:40.700Z,3.50
2019-04-27T07:12:10.647Z,3.50
2019-04-27T07:14:52.202Z,3.67
2019-04-27T07:17:12.441Z,3.60
2019-04-27T07:19:42.684Z,3.77
2019-04-27T07:22:12.557Z,3.33
2019-04-27T07:24:42.506Z,3.70
2019-04-27T07:27:12.491Z,3.50
2019-04-27T07:29:44.577Z,3.90
2019-04-27T07:32:14.636Z,3.67
2019-04-27T07:34:46.725Z,3.83
2019-04-27T07:37:17.073Z,3.40
2019-04-27T07:39:47.028Z,3.37
2019-04-27T07:42:17.348Z,4.03
2019-04-27T07:44:52.062Z,3.80
2019-04-27T07:47:23.839Z,4.00
2019-04-27T07:49:53.801Z,4.40
2019-04-27T07:52:23.730Z,4.67
2019-04-27T07:54:53.875Z,4.87
2019-04-27T07:57:23.835Z,4.83
2019-04-27T07:59:53.697Z,4.73
2019-04-27T08:02:23.644Z,5.07
2019-04-27T08:04:54.017Z,4.67
2019-04-27T08:07:24.644Z,5.43
2019-04-27T08:09:54.556Z,5.63
2019-04-27T08:12:24.655Z,6.33
2019-04-27T08:14:54.622Z,5.70
2019-04-27T08:17:24.800Z,5.57
2019-04-27T08:19:54.754Z,6.00
2019-04-27T08:22:24.630Z,6.80
2019-04-27T08:24:54.420Z,5.63
2019-04-27T08:27:29.938Z,6.70
2019-04-27T08:30:13.343Z,5.90
2019-04-27T08:32:45.538Z,6.27
2019-04-27T08:35:15.606Z,6.03
2019-04-27T08:37:45.507Z,5.93
2019-04-27T08:40:15.777Z,6.50
2019-04-27T08:42:45.654Z,6.20
2019-04-27T08:45:15.868Z,5.60
2019-04-27T08:47:45.847Z,5.83
2019-04-27T08:50:16.774Z,5.47
2019-04-27T08:52:46.589Z,5.73
2019-04-27T08:55:16.567Z,5.63
2019-04-27T08:57:46.514Z,5.93
2019-04-27T09:00:19.177Z,5.80
2019-04-27T09:02:50.283Z,5.73
2019-04-27T09:05:28.682Z,5.93
2019-04-27T09:08:23.746Z,6.23
2019-04-27T09:11:25.353Z,7.53
2019-04-27T09:14:14.145Z,6.33
2019-04-27T09:17:02.283Z,6.70
2019-04-27T09:19:54.554Z,6.47
2019-04-27T09:22:24.540Z,6.53
2019-04-27T09:24:54.454Z,6.60
2019-04-27T09:27:24.458Z,6.87
2019-04-27T09:29:54.464Z,6.43
2019-04-27T09:32:24.736Z,7.10
2019-04-27T09:34:56.950Z,7.40
2019-04-27T09:37:27.461Z,6.70
2019-04-27T09:39:57.415Z,6.20
2019-04-27T09:42:27.409Z,6.43
2019-04-27T09:44:57.634Z,6.83
2019-04-27T09:47:27.529Z,1.97
2019-04-27T09:49:57.802Z,2.00
2019-04-27T09:52:28.660Z,1.70
2019-04-27T09:54:58.760Z,1.63
2019-04-27T09:57:28.714Z,1.47
2019-04-27T09:59:59.285Z,1.90
2019-04-27T10:02:29.536Z,2.33
2019-04-27T10:04:59.465Z,1.90
2019-04-27T10:07:29.604Z,2.27
2019-04-27T10:09:59.878Z,1.80
2019-04-27T10:12:29.989Z,2.70
2019-04-27T10:15:01.054Z,2.40
2019-04-27T10:17:32.398Z,3.07
2019-04-27T10:20:03.147Z,2.30
2019-04-27T10:22:41.263Z,2.43
2019-04-27T10:25:07.059Z,2.70
2019-04-27T10:27:37.058Z,2.40
2019-04-27T10:30:08.880Z,2.17
2019-04-27T10:32:38.986Z,1.83
2019-04-27T10:35:08.956Z,2.10
2019-04-27T10:37:38.983Z,1.90
2019-04-27T10:40:09.000Z,2.00
2019-04-27T10:42:39.583Z,1.87
2019-04-27T10:45:11.323Z,2.00
2019-04-27T10:47:41.373Z,2.00
2019-04-27T10:50:11.406Z,1.70
2019-04-27T10:52:52.791Z,1.90
2019-04-27T10:55:13.465Z,1.87
2019-04-27T10:57:43.838Z,2.10
2019-04-27T11:00:16.681Z,1.63
2019-04-27T11:02:46.834Z,2.00
2019-04-27T11:05:35.924Z,2.13
2019-04-27T11:08:06.611Z,1.90
2019-04-27T11:10:36.823Z,2.00
2019-04-27T11:13:06.860Z,2.20
2019-04-27T11:15:37.142Z,2.07
2019-04-27T11:18:07.474Z,2.17
2019-04-27T11:20:37.462Z,2.23
2019-04-27T11:23:12.305Z,2.60
2019-04-27T11:25:40.855Z,2.83
2019-04-27T11:28:10.853Z,2.03
2019-04-27T11:30:40.824Z,2.57
2019-04-27T11:33:10.813Z,2.03
2019-04-27T11:35:47.253Z,1.97
2019-04-27T11:38:17.286Z,2.87
2019-04-27T11:40:48.677Z,1.63
2019-04-27T11:43:18.641Z,1.80
2019-04-27T11:45:48.871Z,1.93
2019-04-27T11:48:20.404Z,1.93
2019-04-27T11:50:50.438Z,1.90
2019-04-27T11:53:23.109Z,2.33
2019-04-27T11:55:52.362Z,2.20
2019-04-27T11:58:22.330Z,2.27
2019-04-27T12:00:52.351Z,2.77
2019-04-27T12:03:22.362Z,2.33
2019-04-27T12:05:52.661Z,2.20
2019-04-27T12:08:22.576Z,1.80
2019-04-27T12:10:52.495Z,2.00
2019-04-27T12:13:22.617Z,1.90
2019-04-27T12:15:53.120Z,1.70
2019-04-27T12:18:23.107Z,1.70
2019-04-27T12:20:53.491Z,2.00
2019-04-27T12:23:33.696Z,2.20
2019-04-27T12:25:56.345Z,1.50
2019-04-27T12:28:37.682Z,1.70
2019-04-27T12:31:30.396Z,2.27
2019-04-27T12:34:01.046Z,1.90
2019-04-27T12:36:31.250Z,2.57
2019-04-27T12:39:01.129Z,1.77
2019-04-27T12:41:32.732Z,1.67
2019-04-27T12:44:02.690Z,2.10
2019-04-27T12:46:32.759Z,2.07
2019-04-27T12:49:02.778Z,2.10
2019-04-27T12:51:37.301Z,2.17
2019-04-27T12:54:28.307Z,1.60
2019-04-27T12:57:36.416Z,2.23
2019-04-27T13:00:16.893Z,2.50
2019-04-27T13:02:46.949Z,2.13
2019-04-27T13:05:17.965Z,1.70
2019-04-27T13:07:48.307Z,1.60
2019-04-27T13:10:18.593Z,1.60
2019-04-27T13:12:49.094Z,1.50
2019-04-27T13:15:19.257Z,1.43
2019-04-27T13:17:49.183Z,1.80
2019-04-27T13:20:19.866Z,1.93
2019-04-27T13:22:49.804Z,1.50
2019-04-27T13:25:19.869Z,1.27
2019-04-27T13:27:51.216Z,1.73
2019-04-27T13:30:21.361Z,1.70
2019-04-27T13:32:51.444Z,1.43
2019-04-27T13:35:21.369Z,1.53
2019-04-27T13:37:52.892Z,1.50
2019-04-27T13:40:23.193Z,1.50
2019-04-27T13:43:07.874Z,1.63
2019-04-27T13:45:49.390Z,1.50
2019-04-27T13:48:41.209Z,1.47
2019-04-27T13:51:16.666Z,1.77
2019-04-27T13:53:46.509Z,1.77
2019-04-27T13:56:17.504Z,1.77
2019-04-27T13:58:47.636Z,1.70
2019-04-27T14:01:17.615Z,2.47
2019-04-27T14:03:47.588Z,2.07
2019-04-27T14:06:17.534Z,2.00
2019-04-27T14:08:47.507Z,2.43
2019-04-27T14:11:18.353Z,2.07
2019-04-27T14:13:49.661Z,2.17
2019-04-27T14:16:19.573Z,2.20
2019-04-27T14:18:49.862Z,1.90
2019-04-27T14:21:21.193Z,2.30
2019-04-27T14:23:51.587Z,2.10
2019-04-27T14:26:21.837Z,2.10
2019-04-27T14:28:52.048Z,1.73
2019-04-27T14:31:22.357Z,1.90
2019-04-27T14:33:52.925Z,1.63
2019-04-27T14:36:22.971Z,1.90
2019-04-27T14:38:52.960Z,1.70
2019-04-27T14:41:23.004Z,1.40
2019-04-27T14:44:05.217Z,1.50
2019-04-27T14:46:24.992Z,1.63
2019-04-27T14:48:55.068Z,2.23
2019-04-27T14:51:26.832Z,1.90
2019-04-27T14:53:58.813Z,1.80
2019-04-27T14:56:28.875Z,1.77
2019-04-27T14:58:58.850Z,1.63
2019-04-27T15:01:29.079Z,2.00
2019-04-27T15:03:58.968Z,1.70
2019-04-27T15:06:30.218Z,2.13
2019-04-27T15:09:00.454Z,2.00
2019-04-27T15:11:32.109Z,1.60
2019-04-27T15:14:04.289Z,1.60
2019-04-27T15:16:37.829Z,2.10
2019-04-27T15:19:13.296Z,2.10
2019-04-27T15:21:55.779Z,2.37
2019-04-27T15:24:13.863Z,1.67
2019-04-27T15:26:46.905Z,1.87
2019-04-27T15:29:20.609Z,1.67
2019-04-27T15:32:01.313Z,1.93
2019-04-27T15:34:45.524Z,2.33
2019-04-27T15:37:39.235Z,2.50
2019-04-27T15:40:34.510Z,2.30
2019-04-27T15:43:12.160Z,1.87
2019-04-27T15:45:42.003Z,1.83
2019-04-27T15:48:11.893Z,2.53
2019-04-27T15:50:41.862Z,2.10
2019-04-27T15:53:12.633Z,1.43
2019-04-27T15:55:42.773Z,1.20
2019-04-27T15:58:13.030Z,1.57
2019-04-27T16:00:42.993Z,1.70
2019-04-27T16:03:12.949Z,1.40
2019-04-27T16:05:42.971Z,1.90
2019-04-27T16:08:15.670Z,1.60
2019-04-27T16:10:45.287Z,1.83
2019-04-27T16:13:15.414Z,1.80
2019-04-27T16:15:48.172Z,1.93
2019-04-27T16:18:18.635Z,1.57
2019-04-27T16:20:50.168Z,2.03
2019-04-27T16:23:20.059Z,1.83
2019-04-27T16:25:51.507Z,3.00
2019-04-27T16:28:21.461Z,2.17
2019-04-27T16:30:53.854Z,2.30
2019-04-27T16:33:24.459Z,2.50
2019-04-27T16:36:00.282Z,1.90
2019-04-27T16:38:34.874Z,1.80
2019-04-27T16:41:04.897Z,1.80
2019-04-27T16:43:34.685Z,2.30
2019-04-27T16:46:05.624Z,1.77
2019-04-27T16:48:36.366Z,2.73
2019-04-27T16:51:06.642Z,2.43
2019-04-27T16:53:39.803Z,1.77
2019-04-27T16:56:15.163Z,1.40
2019-04-27T16:58:41.551Z,1.63
2019-04-27T17:01:20.324Z,1.73
2019-04-27T17:03:50.254Z,1.17
2019-04-27T17:06:21.370Z,1.73
2019-04-27T17:08:51.582Z,1.70
2019-04-27T17:11:21.671Z,1.10
2019-04-27T17:14:01.708Z,1.53
2019-04-27T17:17:11.911Z,1.10
2019-04-27T17:19:53.514Z,1.37
2019-04-27T17:22:23.370Z,1.13
2019-04-27T17:24:53.559Z,1.70
2019-04-27T17:27:32.244Z,1.57
2019-04-27T17:30:02.132Z,1.30
2019-04-27T17:32:45.606Z,1.27
2019-04-27T17:35:15.758Z,1.33
2019-04-27T17:37:45.716Z,1.30
2019-04-27T17:40:15.977Z,1.43
2019-04-27T17:42:45.941Z,1.70
2019-04-27T17:45:15.872Z,1.63
2019-04-27T17:47:45.818Z,1.50
2019-04-27T17:50:18.456Z,1.70
2019-04-27T17:52:54.338Z,1.47
2019-04-27T17:55:24.072Z,1.90
2019-04-27T17:57:50.785Z,1.43
2019-04-27T18:00:20.934Z,1.50
2019-04-27T18:02:50.928Z,2.07
2019-04-27T18:05:20.857Z,2.10
2019-04-27T18:07:50.830Z,1.63
2019-04-27T18:10:24.138Z,1.73
2019-04-27T18:12:52.689Z,2.03
2019-04-27T18:15:22.625Z,2.23
2019-04-27T18:17:54.498Z,2.40
2019-04-27T18:20:25.641Z,2.53
2019-04-27T18:23:08.913Z,2.80
2019-04-27T18:25:44.572Z,2.57
2019-04-27T18:28:19.004Z,2.43
2019-04-27T18:31:03.080Z,2.70
2019-04-27T18:33:37.291Z,2.00
2019-04-27T18:36:07.279Z,2.20
2019-04-27T18:38:37.298Z,2.20
2019-04-27T18:41:11.738Z,2.63
2019-04-27T18:43:46.401Z,3.17
2019-04-27T18:46:14.919Z,3.77
2019-04-27T18:49:05.290Z,3.07
2019-04-27T18:51:48.352Z,2.80
2019-04-27T18:54:18.526Z,3.57
2019-04-27T18:57:01.463Z,3.77
2019-04-27T18:59:19.904Z,2.23
2019-04-27T19:01:49.882Z,2.07
2019-04-27T19:04:19.704Z,1.87
2019-04-27T19:06:49.563Z,2.30
2019-04-27T19:09:19.709Z,2.10
2019-04-27T19:11:56.255Z,1.80
2019-04-27T19:14:21.439Z,2.10
2019-04-27T19:16:51.749Z,2.20
2019-04-27T19:19:23.190Z,2.00
2019-04-27T19:21:53.353Z,2.17
2019-04-27T19:24:23.303Z,2.70
2019-04-27T19:27:18.580Z,2.23
2019-04-27T19:29:51.738Z,2.27
2019-04-27T19:32:22.163Z,1.90
2019-04-27T19:34:52.112Z,2.03
2019-04-27T19:37:22.120Z,2.23
2019-04-27T19:39:52.419Z,2.20
2019-04-27T19:42:22.804Z,2.00
2019-04-27T19:44:52.972Z,2.57
2019-04-27T19:47:22.831Z,2.20
2019-04-27T19:49:52.806Z,2.00
2019-04-27T19:52:22.897Z,1.90
2019-04-27T19:54:52.850Z,2.13
2019-04-27T19:57:31.865Z,2.37
2019-04-27T19:59:58.849Z,2.63
2019-04-27T20:02:28.894Z,2.53
2019-04-27T20:05:03.316Z,2.37
2019-04-27T20:07:35.143Z,2.30
2019-04-27T20:10:08.745Z,3.00
2019-04-27T20:12:41.122Z,2.27
2019-04-27T20:15:11.385Z,2.67
2019-04-27T20:17:41.717Z,2.83
2019-04-27T20:20:11.802Z,2.40
2019-04-27T20:22:41.746Z,2.43
2019-04-27T20:25:11.735Z,3.30
2019-04-27T20:27:46.867Z,2.20
2019-04-27T20:30:14.054Z,3.33
2019-04-27T20:32:44.413Z,2.23
2019-04-27T20:35:14.364Z,2.47
2019-04-27T20:37:44.330Z,2.80
2019-04-27T20:40:14.449Z,2.90
2019-04-27T20:42:44.437Z,3.07
2019-04-27T20:45:14.572Z,2.90
2019-04-27T20:47:44.506Z,3.20
2019-04-27T20:50:14.535Z,3.10
2019-04-27T20:52:56.001Z,2.63
2019-04-27T20:55:25.932Z,3.37
2019-04-27T20:58:01.757Z,3.80
2019-04-27T21:00:27.800Z,3.03
2019-04-27T21:03:08.509Z,3.10
2019-04-27T21:05:56.029Z,3.77
2019-04-27T21:08:26.074Z,2.90
2019-04-27T21:10:56.327Z,3.53
2019-04-27T21:13:26.268Z,2.93
2019-04-27T21:15:56.544Z,3.27
2019-04-27T21:18:26.476Z,3.27
2019-04-27T21:20:56.358Z,3.30
2019-04-27T21:23:26.451Z,3.60
2019-04-27T21:25:56.338Z,3.40
2019-04-27T21:28:27.378Z,3.83
2019-04-27T21:30:57.364Z,3.17
2019-04-27T21:33:27.229Z,3.40
2019-04-27T21:35:57.258Z,3.00
2019-04-27T21:38:27.219Z,3.67
2019-04-27T21:40:57.102Z,2.90
2019-04-27T21:43:27.071Z,3.93
2019-04-27T21:45:57.017Z,3.93
2019-04-27T21:48:26.914Z,3.27
2019-04-27T21:50:56.799Z,4.13
2019-04-27T21:53:58.104Z,3.90
2019-04-27T21:56:28.097Z,4.20
2019-04-27T21:58:58.837Z,4.03
2019-04-27T22:01:31.851Z,3.33
2019-04-27T22:04:04.105Z,3.63
2019-04-27T22:06:34.117Z,3.27
2019-04-27T22:09:08.267Z,3.57
2019-04-27T22:11:40.883Z,2.97
2019-04-27T22:14:11.671Z,4.03
2019-04-27T22:16:42.043Z,3.50
2019-04-27T22:19:12.163Z,3.07
2019-04-27T22:21:43.268Z,3.13
2019-04-27T22:24:24.443Z,3.23
2019-04-27T22:26:55.082Z,2.90
2019-04-27T22:29:25.051Z,2.97
2019-04-27T22:31:55.069Z,3.97
2019-04-27T22:34:25.077Z,3.27
2019-04-27T22:36:55.015Z,3.03
2019-04-27T22:39:31.001Z,3.00
2019-04-27T22:42:18.646Z,3.23
2019-04-27T22:44:55.460Z,3.33
2019-04-27T22:47:25.758Z,2.83
2019-04-27T22:49:55.988Z,2.90
2019-04-27T22:52:26.277Z,3.53
2019-04-27T22:54:56.388Z,3.30
2019-04-27T22:57:39.085Z,3.63
2019-04-27T23:00:27.884Z,2.70
2019-04-27T23:03:00.828Z,3.40
2019-04-27T23:05:32.086Z,2.93
2019-04-27T23:08:02.090Z,3.00
2019-04-27T23:10:32.557Z,3.50
2019-04-27T23:13:02.818Z,3.77
2019-04-27T23:15:38.905Z,2.90
2019-04-27T23:18:08.953Z,3.00
2019-04-27T23:20:40.774Z,3.23
2019-04-27T23:23:11.476Z,4.03
2019-04-27T23:25:42.741Z,3.83
2019-04-27T23:28:12.815Z,2.87
2019-04-27T23:31:17.221Z,2.80
2019-04-27T23:33:48.629Z,3.50
2019-04-27T23:36:19.092Z,4.33
2019-04-27T23:38:50.870Z,4.13
2019-04-27T23:41:20.894Z,3.83
2019-04-27T23:43:50.897Z,3.63
2019-04-27T23:46:21.482Z,4.03
2019-04-27T23:48:53.911Z,3.63
2019-04-27T23:51:42.976Z,3.83
2019-04-27T23:54:12.954Z,3.07
2019-04-27T23:56:42.988Z,3.40
2019-04-27T23:59:24.228Z,3.47
